Terminal Aerodrome Forecast
Issued by NWS

Home | Current Version | Previous Version | Text Only | Print | Product List | Glossary On
Versions: 1 2 3 4 5 6 7 8 9 10 11 12 13 14 15 16 17
000
FTUS43 KTOP 011100
TAFMHK
TAF
KMHK 011123Z 0112/0212 34013G22KT 3SM -SN BR OVC005
     FM011400 35024G32KT 5SM -SN BR OVC008
     FM012100 34020G30KT P6SM OVC014
     FM020000 34015G22KT P6SM OVC025
     FM020400 35013KT P6SM SCT025=

USA.gov is the U.S. government's official web portal to all federal, state and local government web resources and services.